createdAt,value
2019-04-30T00:00:56.014Z,5.30
2019-04-30T00:01:58.955Z,5.27
2019-04-30T00:02:58.736Z,5.24
2019-04-30T00:04:00.121Z,5.35
2019-04-30T00:05:01.503Z,5.30
2019-04-30T00:06:02.887Z,5.22
2019-04-30T00:07:05.602Z,5.19
2019-04-30T00:08:05.952Z,5.22
2019-04-30T00:09:09.691Z,5.26
2019-04-30T00:10:08.303Z,5.20
2019-04-30T00:11:10.948Z,5.22
2019-04-30T00:12:11.047Z,5.26
2019-04-30T00:13:17.545Z,5.24
2019-04-30T00:14:15.159Z,5.11
2019-04-30T00:15:17.892Z,5.11
2019-04-30T00:16:16.472Z,5.09
2019-04-30T00:17:19.616Z,5.12
2019-04-30T00:18:19.246Z,5.08
2019-04-30T00:19:20.861Z,5.11
2019-04-30T00:20:22.255Z,5.08
2019-04-30T00:21:24.888Z,5.12
2019-04-30T00:22:33.285Z,5.17
2019-04-30T00:23:27.129Z,5.14
2019-04-30T00:24:27.682Z,5.11
2019-04-30T00:25:29.078Z,5.08
2019-04-30T00:26:30.462Z,5.14
2019-04-30T00:27:31.848Z,5.04
2019-04-30T00:28:33.233Z,4.99
2019-04-30T00:29:35.587Z,5.12
2019-04-30T00:30:39.391Z,5.02
2019-04-30T00:31:37.323Z,5.04
2019-04-30T00:32:43.407Z,5.01
2019-04-30T00:33:40.043Z,4.97
2019-04-30T00:34:41.462Z,4.91
2019-04-30T00:35:42.915Z,4.91
2019-04-30T00:36:45.925Z,4.90
2019-04-30T00:37:47.446Z,4.91
2019-04-30T00:38:47.039Z,4.91
2019-04-30T00:39:50.856Z,4.84
2019-04-30T00:40:49.767Z,4.93
2019-04-30T00:41:51.150Z,4.87
2019-04-30T00:42:52.535Z,4.90
2019-04-30T00:43:55.078Z,4.88
2019-04-30T00:44:55.432Z,4.86
2019-04-30T00:45:56.607Z,4.83
2019-04-30T00:47:00.709Z,4.77
2019-04-30T00:47:59.337Z,4.83
2019-04-30T00:49:09.132Z,4.79
2019-04-30T00:50:02.082Z,4.80
2019-04-30T00:51:08.928Z,4.79
2019-04-30T00:52:05.132Z,4.87
2019-04-30T00:53:12.241Z,4.80
2019-04-30T00:54:07.500Z,4.86
2019-04-30T00:55:09.151Z,4.75
2019-04-30T00:56:10.254Z,4.75
2019-04-30T00:57:11.632Z,4.64
2019-04-30T00:58:17.703Z,4.71
2019-04-30T00:59:15.081Z,4.62
2019-04-30T01:00:17.807Z,4.57
2019-04-30T01:01:17.046Z,4.68
2019-04-30T01:02:27.646Z,4.64
2019-04-30T01:03:19.770Z,4.62
2019-04-30T01:04:24.483Z,4.56
2019-04-30T01:05:22.510Z,4.61
2019-04-30T01:06:26.906Z,4.54
2019-04-30T01:07:26.516Z,4.65
2019-04-30T01:08:28.487Z,4.61
2019-04-30T01:09:27.933Z,4.56
2019-04-30T01:10:29.317Z,4.59
2019-04-30T01:11:30.697Z,4.51
2019-04-30T01:12:36.401Z,4.51
2019-04-30T01:13:33.452Z,4.54
2019-04-30T01:14:34.874Z,4.47
2019-04-30T01:15:36.264Z,4.57
2019-04-30T01:16:39.396Z,4.54
2019-04-30T01:17:40.658Z,4.50
2019-04-30T01:18:40.340Z,4.54
2019-04-30T01:19:41.718Z,4.46
2019-04-30T01:20:43.106Z,4.43
2019-04-30T01:21:47.088Z,4.57
2019-04-30T01:22:45.834Z,4.47
2019-04-30T01:23:51.849Z,4.46
2019-04-30T01:24:49.683Z,4.44
2019-04-30T01:25:51.296Z,4.50
2019-04-30T01:26:51.274Z,4.51
2019-04-30T01:27:52.652Z,4.47
2019-04-30T01:28:57.925Z,4.43
2019-04-30T01:29:55.385Z,4.44
2019-04-30T01:30:58.794Z,4.42
2019-04-30T01:31:58.617Z,4.39
2019-04-30T01:33:01.103Z,4.36
2019-04-30T01:34:04.996Z,4.36
2019-04-30T01:35:02.190Z,4.36
2019-04-30T01:36:04.069Z,4.46
2019-04-30T01:37:04.909Z,4.42
2019-04-30T01:38:11.118Z,4.39
2019-04-30T01:39:09.371Z,4.28
2019-04-30T01:40:13.623Z,4.29
2019-04-30T01:41:10.332Z,4.29
2019-04-30T01:42:11.721Z,4.28
2019-04-30T01:43:13.106Z,4.32
2019-04-30T01:44:14.491Z,4.34
2019-04-30T01:45:15.874Z,4.28
2019-04-30T01:46:18.894Z,4.34
2019-04-30T01:47:21.446Z,4.32
2019-04-30T01:48:19.952Z,4.28
2019-04-30T01:49:25.723Z,4.34
2019-04-30T01:50:22.716Z,4.32
2019-04-30T01:51:24.102Z,4.28
2019-04-30T01:52:31.057Z,4.29
2019-04-30T01:53:28.488Z,4.29
2019-04-30T01:54:29.182Z,4.26
2019-04-30T01:55:29.531Z,4.28
2019-04-30T01:56:30.913Z,4.31
2019-04-30T01:57:32.294Z,4.36
2019-04-30T01:58:33.690Z,4.32
2019-04-30T01:59:35.078Z,4.32
2019-04-30T02:00:36.456Z,4.32
2019-04-30T02:01:39.003Z,4.31
2019-04-30T02:02:39.476Z,4.35
2019-04-30T02:03:40.538Z,4.29
2019-04-30T02:04:41.928Z,4.39
2019-04-30T02:05:43.301Z,4.29
2019-04-30T02:06:44.693Z,4.32
2019-04-30T02:07:46.135Z,4.34
2019-04-30T02:08:49.269Z,4.26
2019-04-30T02:09:48.929Z,4.31
2019-04-30T02:10:51.378Z,4.31
2019-04-30T02:11:51.521Z,4.36
2019-04-30T02:12:52.911Z,4.36
2019-04-30T02:13:54.298Z,4.29
2019-04-30T02:14:55.679Z,4.26
2019-04-30T02:15:59.088Z,4.28
2019-04-30T02:16:59.390Z,4.31
2019-04-30T02:17:59.748Z,4.29
2019-04-30T02:19:01.128Z,4.34
2019-04-30T02:20:02.510Z,4.31
2019-04-30T02:21:03.888Z,4.25
2019-04-30T02:22:05.268Z,4.28
2019-04-30T02:23:06.650Z,4.34
2019-04-30T02:24:08.961Z,4.29
2019-04-30T02:25:09.611Z,4.29
2019-04-30T02:26:10.739Z,4.32
2019-04-30T02:27:12.140Z,4.29
2019-04-30T02:28:13.552Z,4.24
2019-04-30T02:29:14.974Z,4.31
2019-04-30T02:30:16.326Z,4.20
2019-04-30T02:31:22.361Z,4.24
2019-04-30T02:32:20.756Z,4.26
2019-04-30T02:33:20.402Z,4.24
2019-04-30T02:34:22.193Z,4.24
2019-04-30T02:35:23.126Z,4.20
2019-04-30T02:36:24.516Z,4.24
2019-04-30T02:37:25.908Z,4.20
2019-04-30T02:38:29.800Z,4.13
2019-04-30T02:39:30.238Z,4.11
2019-04-30T02:40:30.178Z,4.13
2019-04-30T02:41:31.308Z,4.14
2019-04-30T02:42:32.699Z,4.17
2019-04-30T02:43:34.102Z,4.25
2019-04-30T02:44:35.556Z,4.16
2019-04-30T02:45:39.944Z,4.17
2019-04-30T02:46:40.483Z,4.18
2019-04-30T02:47:40.010Z,4.16
2019-04-30T02:48:41.038Z,4.08
2019-04-30T02:49:42.418Z,4.14
2019-04-30T02:50:43.801Z,4.14
2019-04-30T02:51:45.183Z,4.06
2019-04-30T02:52:46.577Z,4.07
2019-04-30T02:53:50.209Z,4.10
2019-04-30T02:54:50.002Z,4.08
2019-04-30T02:55:50.645Z,4.06
2019-04-30T02:56:52.032Z,4.14
2019-04-30T02:57:53.425Z,4.10
2019-04-30T02:58:54.815Z,4.13
2019-04-30T02:59:56.196Z,4.14
2019-04-30T03:01:00.066Z,4.28
2019-04-30T03:01:59.746Z,4.26
2019-04-30T03:03:00.321Z,4.21
2019-04-30T03:04:01.719Z,4.24
2019-04-30T03:05:03.110Z,4.16
2019-04-30T03:06:04.508Z,4.18
2019-04-30T03:07:05.896Z,4.14
2019-04-30T03:08:09.463Z,4.24
2019-04-30T03:09:10.316Z,4.16
2019-04-30T03:10:10.181Z,4.14
2019-04-30T03:11:11.342Z,4.16
2019-04-30T03:12:12.719Z,4.13
2019-04-30T03:13:14.113Z,4.16
2019-04-30T03:14:15.502Z,4.10
2019-04-30T03:15:19.470Z,4.16
2019-04-30T03:16:20.499Z,4.07
2019-04-30T03:17:20.936Z,4.14
2019-04-30T03:18:23.035Z,4.17
2019-04-30T03:19:22.336Z,4.26
2019-04-30T03:20:34.601Z,4.13
2019-04-30T03:21:25.097Z,4.25
2019-04-30T03:22:26.486Z,4.24
2019-04-30T03:23:29.340Z,4.21
2019-04-30T03:24:29.527Z,4.13
2019-04-30T03:25:30.571Z,4.28
2019-04-30T03:26:31.940Z,4.18
2019-04-30T03:27:33.335Z,4.16
2019-04-30T03:28:34.719Z,4.17
2019-04-30T03:29:36.106Z,4.17
2019-04-30T03:30:41.386Z,4.16
2019-04-30T03:31:43.801Z,4.16
2019-04-30T03:32:43.103Z,4.14
2019-04-30T03:33:42.385Z,4.10
2019-04-30T03:34:43.009Z,4.06
2019-04-30T03:35:47.773Z,4.10
2019-04-30T03:36:45.699Z,4.08
2019-04-30T03:37:49.543Z,4.04
2019-04-30T03:38:50.077Z,4.00
2019-04-30T03:39:50.354Z,4.02
2019-04-30T03:40:51.738Z,4.06
2019-04-30T03:41:53.132Z,4.08
2019-04-30T03:42:54.513Z,3.95
2019-04-30T03:43:55.896Z,3.92
2019-04-30T03:44:59.070Z,3.88
2019-04-30T03:45:59.344Z,3.99
2019-04-30T03:46:59.976Z,3.93
2019-04-30T03:48:01.363Z,3.98
2019-04-30T03:49:02.765Z,4.00
2019-04-30T03:50:04.143Z,4.11
2019-04-30T03:51:05.522Z,4.07
2019-04-30T03:52:09.950Z,4.06
2019-04-30T03:53:10.233Z,4.04
2019-04-30T03:54:10.208Z,4.04
2019-04-30T03:55:10.988Z,4.04
2019-04-30T03:56:12.431Z,4.07
2019-04-30T03:57:13.886Z,4.04
2019-04-30T03:58:15.177Z,4.14
2019-04-30T03:59:16.570Z,4.07
2019-04-30T04:00:20.181Z,4.06
2019-04-30T04:01:19.630Z,4.13
2019-04-30T04:02:20.816Z,4.06
2019-04-30T04:03:22.050Z,4.14
2019-04-30T04:04:23.480Z,4.21
2019-04-30T04:05:24.868Z,4.17
2019-04-30T04:06:26.271Z,4.25
2019-04-30T04:07:29.800Z,4.25
2019-04-30T04:08:29.325Z,4.26
2019-04-30T04:09:30.387Z,4.32
2019-04-30T04:10:31.769Z,4.36
2019-04-30T04:11:33.185Z,4.26
2019-04-30T04:12:34.576Z,4.46
2019-04-30T04:13:35.991Z,4.43
2019-04-30T04:14:39.319Z,4.38
2019-04-30T04:15:39.947Z,4.50
2019-04-30T04:16:41.072Z,4.53
2019-04-30T04:17:41.441Z,4.56
2019-04-30T04:18:42.828Z,4.62
2019-04-30T04:19:44.220Z,4.71
2019-04-30T04:20:45.604Z,4.77
2019-04-30T04:21:46.992Z,4.75
2019-04-30T04:22:49.739Z,4.80
2019-04-30T04:23:49.732Z,4.96
2019-04-30T04:24:51.136Z,4.97
2019-04-30T04:25:52.505Z,5.05
2019-04-30T04:26:53.907Z,5.11
2019-04-30T04:27:55.300Z,5.14
2019-04-30T04:28:59.184Z,5.23
2019-04-30T04:30:00.737Z,5.37
2019-04-30T04:31:00.095Z,5.42
2019-04-30T04:32:00.964Z,5.49
2019-04-30T04:33:02.215Z,5.51
2019-04-30T04:34:03.611Z,5.66
2019-04-30T04:35:04.992Z,5.66
2019-04-30T04:36:06.389Z,5.78
2019-04-30T04:37:09.890Z,5.80
2019-04-30T04:38:12.295Z,5.85
2019-04-30T04:39:10.482Z,5.93
2019-04-30T04:40:11.868Z,6.01
2019-04-30T04:41:13.249Z,6.01
2019-04-30T04:42:14.667Z,6.19
2019-04-30T04:43:16.055Z,6.27
2019-04-30T04:44:20.171Z,6.30
2019-04-30T04:45:19.823Z,6.33
2019-04-30T04:46:20.886Z,6.33
2019-04-30T04:47:22.344Z,6.46
2019-04-30T04:48:23.778Z,6.57
2019-04-30T04:49:25.223Z,6.55
2019-04-30T04:50:26.612Z,6.68
2019-04-30T04:51:37.682Z,6.69
2019-04-30T04:52:31.626Z,6.69
2019-04-30T04:53:30.721Z,6.63
2019-04-30T04:54:32.113Z,6.78
2019-04-30T04:55:33.508Z,6.89
2019-04-30T04:56:34.906Z,6.82
2019-04-30T04:57:36.298Z,6.94
2019-04-30T04:58:39.986Z,6.91
2019-04-30T04:59:39.750Z,6.94
2019-04-30T05:00:40.383Z,6.96
2019-04-30T05:01:41.785Z,7.04
2019-04-30T05:02:43.189Z,7.12
2019-04-30T05:03:44.572Z,7.15
2019-04-30T05:04:45.956Z,7.18
2019-04-30T05:05:49.497Z,7.23
2019-04-30T05:06:49.777Z,7.23
2019-04-30T05:07:50.047Z,7.34
2019-04-30T05:08:51.432Z,7.44
2019-04-30T05:09:52.877Z,7.44
2019-04-30T05:10:54.243Z,7.52
2019-04-30T05:11:55.614Z,7.45
2019-04-30T05:12:57.019Z,7.45
2019-04-30T05:13:58.919Z,7.50
2019-04-30T05:14:59.953Z,7.55
2019-04-30T05:16:01.120Z,7.66
2019-04-30T05:17:02.511Z,7.62
2019-04-30T05:18:03.900Z,7.66
2019-04-30T05:19:05.307Z,7.73
2019-04-30T05:20:06.752Z,7.67
2019-04-30T05:21:08.868Z,7.82
2019-04-30T05:22:09.534Z,7.82
2019-04-30T05:23:10.927Z,7.94
2019-04-30T05:24:12.325Z,7.95
2019-04-30T05:25:13.720Z,7.96
2019-04-30T05:26:15.111Z,8.03
2019-04-30T05:27:16.501Z,8.00
2019-04-30T05:28:18.957Z,8.12
2019-04-30T05:29:19.237Z,8.18
2019-04-30T05:30:20.667Z,8.27
2019-04-30T05:31:22.058Z,8.27
2019-04-30T05:32:23.447Z,8.36
2019-04-30T05:33:24.843Z,8.43
2019-04-30T05:34:26.242Z,8.52
2019-04-30T05:35:28.408Z,8.61
2019-04-30T05:36:29.227Z,8.68
2019-04-30T05:37:30.513Z,8.94
2019-04-30T05:38:31.912Z,9.13
2019-04-30T05:39:33.302Z,9.56
2019-04-30T05:40:34.698Z,10.04
2019-04-30T05:41:36.088Z,10.57
2019-04-30T05:42:38.754Z,10.99
2019-04-30T05:43:38.851Z,10.99
2019-04-30T05:44:40.250Z,10.91
2019-04-30T05:45:41.704Z,10.68
2019-04-30T05:46:43.145Z,10.47
2019-04-30T05:47:44.531Z,10.43
2019-04-30T05:48:45.919Z,10.49
2019-04-30T05:49:48.717Z,10.69
2019-04-30T05:50:51.496Z,10.73
2019-04-30T05:51:55.144Z,10.84
2019-04-30T05:52:51.493Z,10.91
2019-04-30T05:53:52.957Z,10.73
2019-04-30T05:54:54.347Z,10.80
2019-04-30T05:55:55.745Z,10.78
2019-04-30T05:56:57.137Z,10.65
2019-04-30T05:57:59.117Z,10.49
2019-04-30T05:58:59.890Z,10.32
2019-04-30T06:00:01.284Z,10.26
2019-04-30T06:01:02.699Z,10.17
2019-04-30T06:02:04.098Z,10.16
2019-04-30T06:03:05.495Z,10.47
2019-04-30T06:04:06.893Z,10.88
2019-04-30T06:05:08.723Z,11.23
2019-04-30T06:06:11.418Z,11.35
2019-04-30T06:07:11.014Z,11.42
2019-04-30T06:08:12.410Z,11.31
2019-04-30T06:09:22.582Z,11.26
2019-04-30T06:10:15.162Z,11.06
2019-04-30T06:11:16.550Z,11.08
2019-04-30T06:12:18.781Z,11.19
2019-04-30T06:13:19.322Z,11.16
2019-04-30T06:14:20.718Z,11.31
2019-04-30T06:15:22.133Z,11.27
2019-04-30T06:16:23.519Z,11.27
2019-04-30T06:17:24.916Z,11.11
2019-04-30T06:18:26.323Z,11.06
2019-04-30T06:19:29.245Z,11.06
2019-04-30T06:20:29.073Z,11.27
2019-04-30T06:21:30.467Z,11.46
2019-04-30T06:22:31.863Z,11.87
2019-04-30T06:23:33.273Z,12.63
2019-04-30T06:24:34.699Z,13.63
2019-04-30T06:25:54.819Z,14.74
2019-04-30T06:26:39.358Z,16.17
2019-04-30T06:27:38.826Z,17.53
2019-04-30T06:28:41.616Z,18.62
2019-04-30T06:29:41.585Z,19.79
2019-04-30T06:30:43.003Z,21.11
2019-04-30T06:31:44.415Z,21.83
2019-04-30T06:32:45.902Z,22.63
2019-04-30T06:33:48.742Z,23.12
2019-04-30T06:34:49.813Z,23.16
2019-04-30T06:35:50.053Z,23.72
2019-04-30T06:36:53.802Z,23.79
2019-04-30T06:37:52.836Z,24.30
2019-04-30T06:38:54.244Z,24.80
2019-04-30T06:39:55.666Z,25.09
2019-04-30T06:40:58.735Z,25.38
2019-04-30T06:42:05.019Z,25.27
2019-04-30T06:43:00.792Z,26.00
2019-04-30T06:44:01.166Z,26.39
2019-04-30T06:45:02.585Z,26.54
2019-04-30T06:46:04.002Z,26.69
2019-04-30T06:47:05.408Z,27.02
2019-04-30T06:48:08.735Z,27.34
2019-04-30T06:49:09.469Z,27.59
2019-04-30T06:50:09.717Z,27.71
2019-04-30T06:51:10.961Z,27.71
2019-04-30T06:52:20.361Z,27.87
2019-04-30T06:53:13.754Z,27.72
2019-04-30T06:54:15.167Z,27.98
2019-04-30T06:55:16.607Z,27.72
2019-04-30T06:56:18.894Z,28.02
2019-04-30T06:57:19.803Z,28.33
2019-04-30T06:58:20.817Z,28.05
2019-04-30T06:59:22.223Z,28.38
2019-04-30T07:00:32.830Z,28.79
2019-04-30T07:01:25.019Z,28.97
2019-04-30T07:02:26.438Z,29.48
2019-04-30T07:03:29.063Z,29.74
2019-04-30T07:04:29.426Z,30.06
2019-04-30T07:05:30.669Z,29.76
2019-04-30T07:06:36.734Z,29.85
2019-04-30T07:07:38.667Z,30.16
2019-04-30T07:08:39.154Z,29.99
2019-04-30T07:09:49.868Z,30.60
2019-04-30T07:10:37.592Z,30.66
2019-04-30T07:11:39.222Z,30.32
2019-04-30T07:12:40.405Z,29.84
2019-04-30T07:13:41.799Z,29.70
2019-04-30T07:14:43.214Z,29.47
2019-04-30T07:15:44.645Z,29.36
2019-04-30T07:16:46.056Z,28.80
2019-04-30T07:17:49.013Z,28.64
2019-04-30T07:18:49.034Z,28.38
2019-04-30T07:19:54.256Z,28.43
2019-04-30T07:20:51.618Z,28.65
2019-04-30T07:21:53.054Z,28.28
2019-04-30T07:23:00.778Z,28.24
2019-04-30T07:23:55.827Z,28.36
2019-04-30T07:24:59.402Z,29.48
2019-04-30T07:25:59.053Z,29.76
2019-04-30T07:27:02.646Z,29.32
2019-04-30T07:28:01.391Z,29.45
2019-04-30T07:29:02.807Z,29.94
2019-04-30T07:30:04.243Z,29.62
2019-04-30T07:31:13.120Z,29.45
2019-04-30T07:32:09.223Z,29.54
2019-04-30T07:33:09.545Z,29.12
2019-04-30T07:34:09.815Z,29.51
2019-04-30T07:35:11.230Z,30.11
2019-04-30T07:36:12.644Z,29.89
2019-04-30T07:37:20.478Z,28.97
2019-04-30T07:38:15.434Z,29.51
2019-04-30T07:39:19.071Z,29.97
2019-04-30T07:40:19.003Z,30.15
2019-04-30T07:41:19.608Z,30.22
2019-04-30T07:42:21.026Z,30.70
2019-04-30T07:43:22.451Z,30.56
2019-04-30T07:44:34.108Z,31.10
2019-04-30T07:45:25.762Z,30.83
2019-04-30T07:46:26.638Z,30.19
2019-04-30T07:47:29.621Z,30.30
2019-04-30T07:48:29.838Z,30.04
2019-04-30T07:49:46.430Z,30.44
2019-04-30T07:50:32.467Z,29.94
2019-04-30T07:51:37.617Z,29.84
2019-04-30T07:52:35.362Z,30.06
2019-04-30T07:53:36.356Z,30.29
2019-04-30T07:54:39.564Z,30.96
2019-04-30T07:55:39.401Z,31.31
2019-04-30T07:56:41.685Z,30.90
2019-04-30T07:57:41.912Z,31.59
2019-04-30T07:58:43.329Z,31.59
2019-04-30T07:59:44.749Z,31.92
2019-04-30T08:00:46.174Z,32.41
2019-04-30T08:02:03.228Z,32.31
2019-04-30T08:02:50.514Z,31.41
2019-04-30T08:03:50.703Z,31.37
2019-04-30T08:04:51.770Z,31.54
2019-04-30T08:05:53.242Z,31.68
2019-04-30T08:06:54.586Z,32.10
2019-04-30T08:07:56.012Z,31.97
2019-04-30T08:09:00.248Z,32.34
2019-04-30T08:09:58.993Z,32.58
2019-04-30T08:11:00.193Z,32.78
2019-04-30T08:12:01.693Z,32.90
2019-04-30T08:13:10.531Z,32.21
2019-04-30T08:14:04.736Z,32.54
2019-04-30T08:15:05.779Z,32.31
2019-04-30T08:16:07.197Z,32.14
2019-04-30T08:17:08.818Z,32.84
2019-04-30T08:18:10.001Z,32.50
2019-04-30T08:19:11.419Z,31.84
2019-04-30T08:20:15.642Z,31.49
2019-04-30T08:21:14.242Z,30.91
2019-04-30T08:22:15.629Z,31.40
2019-04-30T08:23:32.908Z,31.31
2019-04-30T08:24:19.369Z,31.71
2019-04-30T08:25:21.931Z,31.72
2019-04-30T08:26:21.198Z,31.88
2019-04-30T08:27:22.624Z,31.65
2019-04-30T08:28:24.050Z,31.68
2019-04-30T08:29:25.470Z,31.87
2019-04-30T08:30:29.471Z,32.27
2019-04-30T08:31:29.202Z,32.05
2019-04-30T08:32:29.698Z,31.60
2019-04-30T08:33:31.158Z,31.76
2019-04-30T08:34:32.584Z,32.14
2019-04-30T08:35:34.008Z,32.19
2019-04-30T08:36:35.433Z,32.22
2019-04-30T08:37:38.451Z,32.54
2019-04-30T08:38:39.437Z,32.56
2019-04-30T08:39:39.719Z,32.80
2019-04-30T08:40:53.264Z,32.76
2019-04-30T08:41:42.412Z,32.54
2019-04-30T08:42:43.830Z,32.78
2019-04-30T08:43:45.293Z,33.07
2019-04-30T08:44:48.437Z,33.44
2019-04-30T08:45:48.818Z,33.17
2019-04-30T08:46:49.483Z,33.29
2019-04-30T08:47:50.905Z,33.37
2019-04-30T08:48:53.791Z,33.47
2019-04-30T08:49:53.793Z,33.62
2019-04-30T08:50:55.122Z,33.65
2019-04-30T08:51:58.221Z,34.15
2019-04-30T08:52:59.397Z,33.87
2019-04-30T08:53:59.281Z,33.35
2019-04-30T08:55:12.677Z,32.91
2019-04-30T08:56:02.100Z,32.63
2019-04-30T08:57:03.514Z,33.02
2019-04-30T08:58:10.089Z,32.78
2019-04-30T08:59:06.320Z,32.53
2019-04-30T09:00:09.194Z,32.66
2019-04-30T09:01:09.113Z,33.00
2019-04-30T09:02:15.955Z,33.00
2019-04-30T09:03:11.924Z,33.15
2019-04-30T09:04:13.334Z,32.85
2019-04-30T09:05:14.751Z,33.09
2019-04-30T09:06:16.199Z,32.51
2019-04-30T09:07:19.511Z,32.68
2019-04-30T09:08:19.393Z,32.63
2019-04-30T09:09:20.417Z,32.81
2019-04-30T09:10:21.852Z,32.31
2019-04-30T09:11:30.195Z,32.05
2019-04-30T09:12:24.655Z,32.28
2019-04-30T09:13:26.085Z,32.22
2019-04-30T09:14:29.458Z,32.16
2019-04-30T09:15:29.032Z,32.24
2019-04-30T09:16:30.285Z,32.27
2019-04-30T09:17:31.711Z,32.32
2019-04-30T09:18:33.134Z,31.99
2019-04-30T09:19:34.599Z,32.31
2019-04-30T09:20:36.007Z,32.17
2019-04-30T09:21:38.582Z,31.72
2019-04-30T09:22:39.369Z,31.53
2019-04-30T09:23:44.650Z,31.32
2019-04-30T09:24:41.581Z,31.30
2019-04-30T09:25:42.998Z,31.75
2019-04-30T09:26:44.424Z,31.74
2019-04-30T09:27:45.851Z,32.09
2019-04-30T09:28:49.252Z,32.10
2019-04-30T09:29:49.265Z,32.29
2019-04-30T09:30:50.034Z,32.27
2019-04-30T09:31:51.472Z,32.53
2019-04-30T09:32:52.880Z,32.28
2019-04-30T09:33:54.314Z,32.34
2019-04-30T09:34:55.733Z,31.92
2019-04-30T09:35:57.160Z,32.19
2019-04-30T09:36:58.910Z,32.13
2019-04-30T09:38:01.894Z,32.09
2019-04-30T09:39:01.681Z,31.82
2019-04-30T09:40:14.739Z,32.10
2019-04-30T09:41:04.107Z,32.31
2019-04-30T09:42:05.533Z,32.05
2019-04-30T09:43:08.626Z,32.36
2019-04-30T09:44:09.934Z,32.54
2019-04-30T09:45:09.735Z,32.06
2019-04-30T09:46:19.173Z,32.25
2019-04-30T09:47:12.531Z,32.47
2019-04-30T09:48:13.967Z,32.28
2019-04-30T09:49:15.395Z,31.95
2019-04-30T09:50:18.752Z,31.59
2019-04-30T09:51:19.937Z,31.57
2019-04-30T09:52:19.858Z,31.56
2019-04-30T09:53:21.134Z,31.79
2019-04-30T09:54:22.678Z,32.07
2019-04-30T09:55:23.786Z,31.56
2019-04-30T09:56:25.208Z,31.53
2019-04-30T09:57:26.634Z,31.10
2019-04-30T09:58:29.475Z,31.32
2019-04-30T09:59:29.444Z,31.38
2019-04-30T10:00:30.858Z,31.31
2019-04-30T10:01:32.978Z,31.42
2019-04-30T10:02:33.662Z,31.40
2019-04-30T10:03:35.892Z,31.34
2019-04-30T10:04:36.729Z,31.20
2019-04-30T10:05:39.088Z,31.71
2019-04-30T10:06:40.219Z,31.64
2019-04-30T10:07:40.637Z,31.98
2019-04-30T10:08:48.361Z,31.88
2019-04-30T10:09:43.440Z,32.21
2019-04-30T10:10:44.865Z,32.41
2019-04-30T10:11:46.292Z,32.54
2019-04-30T10:12:49.165Z,32.49
2019-04-30T10:13:49.091Z,32.62
2019-04-30T10:14:50.516Z,32.44
2019-04-30T10:15:51.945Z,32.17
2019-04-30T10:16:53.365Z,32.31
2019-04-30T10:17:55.739Z,31.84
2019-04-30T10:18:57.181Z,31.69
2019-04-30T10:19:58.609Z,31.49
2019-04-30T10:21:00.945Z,31.68
2019-04-30T10:22:01.428Z,31.72
2019-04-30T10:23:02.853Z,31.84
2019-04-30T10:24:14.703Z,31.53
2019-04-30T10:25:05.662Z,31.37
2019-04-30T10:26:07.074Z,31.27
2019-04-30T10:27:12.996Z,31.25
2019-04-30T10:28:09.942Z,31.22
2019-04-30T10:29:11.242Z,31.05
2019-04-30T10:30:12.662Z,31.05
2019-04-30T10:31:14.083Z,30.32
2019-04-30T10:32:15.502Z,29.52
2019-04-30T10:33:16.913Z,29.20
2019-04-30T10:34:18.313Z,28.46
2019-04-30T10:35:20.358Z,27.95
2019-04-30T10:36:21.097Z,27.48
2019-04-30T10:37:22.512Z,27.05
2019-04-30T10:38:23.947Z,26.71
2019-04-30T10:39:25.364Z,26.28
2019-04-30T10:40:28.677Z,26.04
2019-04-30T10:41:28.736Z,25.79
2019-04-30T10:42:29.543Z,25.16
2019-04-30T10:43:32.071Z,24.89
2019-04-30T10:44:32.339Z,24.74
2019-04-30T10:45:33.754Z,24.87
2019-04-30T10:46:35.173Z,24.52
2019-04-30T10:47:36.573Z,24.63
2019-04-30T10:48:37.988Z,24.39
2019-04-30T10:49:39.442Z,24.26
2019-04-30T10:50:41.045Z,24.18
2019-04-30T10:51:42.284Z,24.15
2019-04-30T10:52:43.698Z,24.12
2019-04-30T10:53:45.111Z,24.36
2019-04-30T10:54:46.538Z,24.48
2019-04-30T10:55:48.626Z,24.71
2019-04-30T10:56:51.437Z,24.86
2019-04-30T10:57:50.718Z,25.30
2019-04-30T10:58:52.144Z,25.71
2019-04-30T10:59:53.542Z,26.17
2019-04-30T11:00:54.947Z,26.47
2019-04-30T11:01:56.349Z,26.49
2019-04-30T11:02:59.243Z,26.56
2019-04-30T11:03:59.176Z,26.69
2019-04-30T11:05:00.595Z,26.72
2019-04-30T11:06:01.995Z,26.79
2019-04-30T11:07:03.411Z,27.15
2019-04-30T11:08:04.818Z,27.31
2019-04-30T11:09:06.235Z,27.31
2019-04-30T11:10:08.743Z,27.20
2019-04-30T11:11:09.045Z,27.21
2019-04-30T11:12:10.443Z,27.39
2019-04-30T11:13:11.855Z,27.21
2019-04-30T11:14:13.267Z,27.13
2019-04-30T11:15:14.710Z,27.63
2019-04-30T11:16:16.098Z,28.06
2019-04-30T11:17:19.466Z,28.38
2019-04-30T11:18:19.061Z,28.79
2019-04-30T11:19:20.429Z,29.15
2019-04-30T11:20:22.189Z,29.33
2019-04-30T11:21:23.916Z,29.67
2019-04-30T11:22:25.244Z,30.11
2019-04-30T11:23:26.521Z,30.19
2019-04-30T11:24:36.596Z,30.07
2019-04-30T11:25:31.360Z,29.92
2019-04-30T11:26:31.853Z,30.11
2019-04-30T11:27:32.523Z,29.79
2019-04-30T11:28:33.527Z,29.41
2019-04-30T11:29:34.921Z,28.89
2019-04-30T11:30:36.275Z,28.74
2019-04-30T11:31:37.660Z,28.50
2019-04-30T11:32:39.056Z,28.48
2019-04-30T11:33:40.280Z,28.42
2019-04-30T11:34:41.589Z,28.20
2019-04-30T11:35:43.049Z,28.11
2019-04-30T11:36:44.479Z,27.72
2019-04-30T11:37:45.924Z,27.78
2019-04-30T11:38:48.698Z,28.08
2019-04-30T11:39:48.697Z,28.23
2019-04-30T11:40:50.109Z,28.54
2019-04-30T11:41:51.525Z,28.65
2019-04-30T11:42:52.930Z,28.83
2019-04-30T11:43:54.348Z,28.76
2019-04-30T11:44:55.777Z,28.82
2019-04-30T11:45:58.697Z,28.60
2019-04-30T11:46:59.617Z,28.79
2019-04-30T11:48:00.603Z,29.27
2019-04-30T11:49:01.323Z,29.33
2019-04-30T11:50:02.784Z,29.42
2019-04-30T11:51:04.206Z,29.37
2019-04-30T11:52:05.606Z,29.41
2019-04-30T11:53:22.128Z,29.18
2019-04-30T11:54:08.941Z,29.18
2019-04-30T11:55:09.849Z,28.70
2019-04-30T11:56:11.138Z,28.43
2019-04-30T11:57:18.726Z,27.99
2019-04-30T11:58:21.869Z,27.69
2019-04-30T11:59:20.137Z,27.39
2019-04-30T12:00:21.539Z,27.06
2019-04-30T12:01:22.956Z,26.76
2019-04-30T12:02:24.357Z,26.49
2019-04-30T12:03:25.767Z,26.06
2019-04-30T12:04:27.208Z,25.57
2019-04-30T12:05:28.980Z,25.26
2019-04-30T12:06:29.970Z,25.04
2019-04-30T12:07:31.364Z,24.82
2019-04-30T12:08:32.788Z,24.44
2019-04-30T12:09:34.198Z,24.26
2019-04-30T12:10:35.601Z,24.08
2019-04-30T12:11:37.017Z,23.97
2019-04-30T12:12:38.810Z,23.84
2019-04-30T12:13:39.830Z,23.81
2019-04-30T12:14:41.247Z,23.62
2019-04-30T12:15:42.644Z,23.59
2019-04-30T12:16:44.064Z,23.57
2019-04-30T12:17:45.469Z,23.31
2019-04-30T12:18:46.887Z,23.15
2019-04-30T12:19:48.878Z,23.18
2019-04-30T12:20:49.666Z,23.16
2019-04-30T12:21:51.086Z,23.12
2019-04-30T12:22:52.480Z,22.99
2019-04-30T12:23:53.891Z,22.86
2019-04-30T12:25:02.492Z,22.84
2019-04-30T12:25:56.663Z,22.81
2019-04-30T12:26:58.085Z,22.82
2019-04-30T12:27:59.578Z,22.82
2019-04-30T12:29:00.870Z,22.69
2019-04-30T12:30:02.276Z,22.49
2019-04-30T12:31:05.756Z,22.44
2019-04-30T12:32:05.079Z,22.31
2019-04-30T12:33:06.469Z,22.30
2019-04-30T12:34:07.890Z,22.20
2019-04-30T12:35:09.293Z,22.21
2019-04-30T12:36:10.705Z,22.27
2019-04-30T12:37:12.109Z,22.64
2019-04-30T12:38:13.518Z,22.82
2019-04-30T12:39:14.923Z,23.01
2019-04-30T12:40:26.623Z,23.11
2019-04-30T12:41:17.706Z,23.03
2019-04-30T12:42:19.106Z,22.97
2019-04-30T12:43:20.513Z,22.69
2019-04-30T12:44:21.919Z,22.60
2019-04-30T12:45:23.331Z,22.72
2019-04-30T12:46:24.740Z,22.70
2019-04-30T12:47:26.152Z,22.82
2019-04-30T12:48:29.491Z,23.04
2019-04-30T12:49:28.922Z,23.29
2019-04-30T12:50:30.332Z,23.59
2019-04-30T12:51:31.736Z,23.72
2019-04-30T12:52:33.140Z,23.89
2019-04-30T12:53:34.536Z,23.84
2019-04-30T12:54:35.951Z,23.63
2019-04-30T12:55:39.109Z,23.45
2019-04-30T12:56:38.726Z,23.21
2019-04-30T12:57:40.133Z,22.96
2019-04-30T12:58:41.549Z,22.94
2019-04-30T12:59:42.948Z,22.94
2019-04-30T13:00:44.354Z,22.84
2019-04-30T13:01:45.789Z,22.64
2019-04-30T13:02:47.194Z,22.48
2019-04-30T13:03:56.663Z,22.20
2019-04-30T13:04:49.967Z,22.02
2019-04-30T13:05:52.052Z,21.96
2019-04-30T13:06:53.153Z,21.91
2019-04-30T13:07:54.503Z,21.93
2019-04-30T13:08:55.934Z,21.73
2019-04-30T13:09:57.327Z,21.61
2019-04-30T13:10:58.616Z,21.58
2019-04-30T13:12:00.575Z,21.42
2019-04-30T13:13:01.338Z,21.31
2019-04-30T13:14:02.667Z,21.24
2019-04-30T13:15:03.709Z,21.13
2019-04-30T13:16:05.112Z,21.11
2019-04-30T13:17:07.348Z,21.06
2019-04-30T13:18:09.446Z,21.01
2019-04-30T13:19:09.413Z,20.96
2019-04-30T13:20:18.599Z,20.83
2019-04-30T13:21:11.980Z,20.78
2019-04-30T13:50:10.886Z,20.13